Time;durP1;ratioP1;P1;durP2;ratioP2;P2;SDS_P1;SDS_P2;PMS_P1;PMS_P2;Temp;Humidity;BMP_temperature;BMP_pressure;BME280_temperature;BME280_humidity;BME280_pressure;Samples;Min_cycle;Max_cycle;Signal;HPM_P1;HPM_P2
2024/02/03 00:01:56;;;;;;;17.58;10.80;;;;;;;9.62;100.00;101170.97;5259031;28;20034;-76
2024/02/03 00:04:26;;;;;;;20.55;11.07;;;;;;;9.61;100.00;101165.75;5258361;28;20086;-75
2024/02/03 00:06:57;;;;;;;18.27;10.48;;;;;;;9.67;100.00;101168.25;5253741;28;20062;-76
2024/02/03 00:09:27;;;;;;;19.77;11.60;;;;;;;9.68;100.00;101162.16;5263295;28;20438;-76
2024/02/03 00:11:57;;;;;;;19.40;11.52;;;;;;;9.70;100.00;101156.00;5264138;28;20094;-76
2024/02/03 00:14:28;;;;;;;21.30;12.30;;;;;;;9.71;100.00;101149.03;5263967;28;20045;-76
2024/02/03 00:16:58;;;;;;;23.33;13.10;;;;;;;9.76;100.00;101160.22;5262126;28;20039;-76
2024/02/03 00:19:28;;;;;;;20.80;12.23;;;;;;;9.80;100.00;101154.88;5244018;28;20280;-76
2024/02/03 00:21:59;;;;;;;19.92;11.52;;;;;;;9.84;100.00;101159.13;5232610;28;20027;-76
2024/02/03 00:24:29;;;;;;;23.42;12.77;;;;;;;9.82;100.00;101147.88;5262943;28;20314;-76
2024/02/03 00:27:02;;;;;;;20.95;12.23;;;;;;;9.80;100.00;101154.88;5262831;28;20016;-75
2024/02/03 00:29:32;;;;;;;28.05;12.93;;;;;;;9.89;100.00;101152.06;5259022;28;20024;-76
2024/02/03 00:32:03;;;;;;;19.40;11.48;;;;;;;9.89;100.00;101146.84;5255230;28;20386;-76
2024/02/03 00:34:33;;;;;;;22.00;12.20;;;;;;;9.90;100.00;101142.47;5258667;28;20569;-76
2024/02/03 00:37:04;;;;;;;23.17;12.50;;;;;;;9.92;100.00;101151.13;5255714;28;20051;-76
2024/02/03 00:39:34;;;;;;;22.02;12.93;;;;;;;10.01;100.00;101153.53;5247707;28;20586;-76
2024/02/03 00:42:04;;;;;;;22.48;12.73;;;;;;;10.06;100.00;101136.91;5258280;28;20054;-76
2024/02/03 00:44:35;;;;;;;22.70;12.70;;;;;;;10.07;100.00;101148.19;5258523;28;20032;-76
2024/02/03 00:47:06;;;;;;;24.67;13.10;;;;;;;10.07;100.00;101150.78;5257291;28;20319;-76
2024/02/03 00:49:36;;;;;;;23.48;13.02;;;;;;;9.99;100.00;101145.72;5258394;28;20040;-76
2024/02/03 00:52:07;;;;;;;21.88;12.10;;;;;;;10.06;100.00;101149.09;5257551;28;20070;-76
2024/02/03 00:54:37;;;;;;;20.83;13.00;;;;;;;10.06;100.00;101144.72;5240037;28;20028;-76
2024/02/03 00:57:08;;;;;;;22.10;12.95;;;;;;;10.07;100.00;101145.56;5256316;28;20028;-76
2024/02/03 00:59:38;;;;;;;26.17;13.88;;;;;;;10.14;100.00;101144.53;5260644;28;20035;-76
2024/02/03 01:02:09;;;;;;;25.70;13.73;;;;;;;10.10;100.00;101154.19;5257732;28;20024;-76
2024/02/03 01:04:42;;;;;;;23.08;13.52;;;;;;;10.14;100.00;101140.16;5260660;28;20015;-75
2024/02/03 01:07:12;;;;;;;23.98;14.02;;;;;;;10.10;100.00;101137.66;5247403;28;20174;-76
2024/02/03 01:09:42;;;;;;;25.00;13.90;;;;;;;10.15;100.00;101138.44;5256687;28;20028;-76
2024/02/03 01:12:13;;;;;;;23.33;13.45;;;;;;;10.18;100.00;101138.34;5246338;28;20051;-76
2024/02/03 01:14:43;;;;;;;23.70;13.98;;;;;;;10.18;100.00;101138.34;5259158;28;20027;-76
2024/02/03 01:17:16;;;;;;;23.48;13.88;;;;;;;10.17;100.00;101140.09;5256655;28;20103;-76
2024/02/03 01:19:47;;;;;;;26.83;14.35;;;;;;;10.16;100.00;101127.91;5239810;28;20024;-76
2024/02/03 01:22:17;;;;;;;24.75;14.43;;;;;;;10.15;100.00;101133.19;5251498;28;20020;-75
2024/02/03 01:24:48;;;;;;;25.58;14.25;;;;;;;10.16;100.00;101140.13;5248525;28;20559;-76
2024/02/03 01:27:18;;;;;;;26.58;14.35;;;;;;;10.14;100.00;101136.72;5258182;28;20451;-76
2024/02/03 01:29:48;;;;;;;27.65;14.60;;;;;;;10.18;100.00;101144.41;5253242;28;20042;-76
2024/02/03 01:32:19;;;;;;;25.23;14.70;;;;;;;10.16;100.00;101135.75;5255162;28;20118;-76
2024/02/03 01:34:49;;;;;;;24.73;14.77;;;;;;;10.24;100.00;101141.66;5255252;28;20031;-76
2024/02/03 01:37:19;;;;;;;26.30;14.85;;;;;;;10.22;100.00;101139.97;5259597;28;20020;-76
2024/02/03 01:39:50;;;;;;;26.38;14.48;;;;;;;10.25;100.00;101150.34;5256404;28;20032;-76
2024/02/03 01:42:21;;;;;;;26.40;14.82;;;;;;;10.24;100.00;101140.78;5257097;28;20020;-76
2024/02/03 01:44:51;;;;;;;25.67;14.43;;;;;;;10.30;100.00;101141.50;5248342;28;20032;-75
2024/02/03 01:47:22;;;;;;;25.60;14.98;;;;;;;10.24;100.00;101133.81;5256757;28;20151;-76
2024/02/03 01:49:53;;;;;;;27.83;14.50;;;;;;;10.32;100.00;101141.47;5257158;28;20432;-76
2024/02/03 01:52:23;;;;;;;26.27;14.98;;;;;;;10.32;100.00;101133.63;5257952;28;20031;-76
2024/02/03 01:54:54;;;;;;;24.00;13.77;;;;;;;10.28;100.00;101140.69;5246417;28;20090;-76
2024/02/03 01:57:26;;;;;;;30.15;15.70;;;;;;;10.33;100.00;101140.56;5257132;28;20056;-76
2024/02/03 01:59:56;;;;;;;27.27;14.85;;;;;;;10.27;100.00;101145.94;5238795;28;20089;-76
2024/02/03 02:02:27;;;;;;;24.58;14.27;;;;;;;10.31;100.00;101139.75;5239726;28;20485;-76
2024/02/03 02:04:57;;;;;;;24.00;13.73;;;;;;;10.35;100.00;101154.44;5258060;28;20023;-76
2024/02/03 02:07:27;;;;;;;24.75;13.90;;;;;;;10.43;100.00;101142.91;5253195;28;20279;-75
2024/02/03 02:09:58;;;;;;;25.58;13.52;;;;;;;10.43;100.00;101148.13;5241093;28;20186;-76
2024/02/03 02:12:28;;;;;;;26.50;14.85;;;;;;;10.40;100.00;101139.50;5259087;28;20038;-76
2024/02/03 02:14:59;;;;;;;24.98;13.77;;;;;;;10.46;100.00;101127.13;5261270;28;20019;-76
2024/02/03 02:17:29;;;;;;;23.55;14.13;;;;;;;10.42;100.00;101127.25;5262193;28;20024;-76
2024/02/03 02:20:05;;;;;;;27.15;15.00;;;;;;;10.46;100.00;101131.50;5243908;28;20025;-76
2024/02/03 02:22:36;;;;;;;23.67;13.60;;;;;;;10.46;100.00;101132.38;5252934;28;20504;-76
2024/02/03 02:25:07;;;;;;;25.33;14.20;;;;;;;10.39;100.00;101127.34;5258958;28;20066;-75
2024/02/03 02:27:38;;;;;;;23.45;13.85;;;;;;;10.46;100.00;101131.50;5261733;28;20437;-76
2024/02/03 02:30:09;;;;;;;21.77;12.95;;;;;;;10.47;100.00;101128.84;5258669;28;20038;-76
2024/02/03 02:32:41;;;;;;;23.55;13.98;;;;;;;10.46;100.00;101127.13;5261839;28;20509;-76
2024/02/03 02:35:12;;;;;;;23.67;14.23;;;;;;;10.44;100.00;101118.50;5251894;28;20377;-76
2024/02/03 02:37:43;;;;;;;24.48;13.35;;;;;;;10.45;100.00;101120.19;5242689;28;20043;-76
2024/02/03 02:40:13;;;;;;;25.65;13.48;;;;;;;10.49;100.00;101121.00;5260060;28;20302;-76
2024/02/03 02:42:44;;;;;;;24.20;13.63;;;;;;;10.41;100.00;101115.09;5263440;28;20493;-76
2024/02/03 02:45:14;;;;;;;25.95;13.75;;;;;;;10.48;100.00;101109.66;5260520;28;20039;-76
2024/02/03 02:47:44;;;;;;;28.23;14.68;;;;;;;10.50;100.00;101109.63;5261150;28;20042;-76
2024/02/03 02:50:15;;;;;;;26.27;14.20;;;;;;;10.39;100.00;101115.16;5231808;28;21036;-77
2024/02/03 02:52:45;;;;;;;25.10;14.02;;;;;;;10.44;100.00;101117.63;5260281;28;20432;-76
2024/02/03 02:55:16;;;;;;;24.20;14.35;;;;;;;10.49;100.00;101107.91;5259019;28;20035;-76
2024/02/03 02:57:46;;;;;;;23.83;13.75;;;;;;;10.60;100.00;101111.09;5261346;28;20156;-76
2024/02/03 03:00:17;;;;;;;27.48;14.52;;;;;;;10.57;100.00;101108.56;5261326;28;20115;-76
2024/02/03 03:02:48;;;;;;;25.13;14.32;;;;;;;10.51;100.00;101108.75;5240714;28;20024;-76
2024/02/03 03:05:18;;;;;;;25.27;14.80;;;;;;;10.47;100.00;101117.53;5253649;28;20305;-75
2024/02/03 03:07:50;;;;;;;27.25;14.27;;;;;;;10.47;100.00;101117.53;5257452;28;20030;-76
2024/02/03 03:10:20;;;;;;;23.15;14.55;;;;;;;10.48;100.00;101114.88;5241847;28;20020;-76
2024/02/03 03:12:51;;;;;;;25.65;14.48;;;;;;;10.51;100.00;101113.97;5260149;28;20028;-76
2024/02/03 03:15:21;;;;;;;27.98;14.88;;;;;;;10.38;100.00;101128.25;5242428;28;20027;-76
2024/02/03 03:17:51;;;;;;;24.42;14.02;;;;;;;10.35;100.00;101133.56;5261489;28;20031;-76
2024/02/03 03:20:22;;;;;;;25.60;14.73;;;;;;;10.32;100.00;101124.03;5236914;28;20099;-76
2024/02/03 03:22:52;;;;;;;26.50;14.82;;;;;;;10.33;100.00;101119.66;5261855;28;20032;-76
2024/02/03 03:25:22;;;;;;;28.52;15.60;;;;;;;10.30;100.00;101123.22;5259965;28;20031;-76
2024/02/03 03:27:53;;;;;;;26.42;15.27;;;;;;;10.32;100.00;101116.19;5260828;28;20469;-76
2024/02/03 03:30:23;;;;;;;27.20;15.93;;;;;;;10.30;100.00;101120.59;5242760;28;20030;-76
2024/02/03 03:32:53;;;;;;;27.67;15.25;;;;;;;10.16;100.00;101121.84;5261178;28;20586;-76
2024/02/03 03:35:25;;;;;;;29.77;16.38;;;;;;;10.20;100.00;101124.31;5259930;28;20029;-76
2024/02/03 03:37:57;;;;;;;32.03;16.08;;;;;;;10.18;100.00;101122.66;5260659;28;20059;-76
2024/02/03 03:40:27;;;;;;;25.85;15.68;;;;;;;10.12;100.00;101121.06;5272169;22;20133;-74
2024/02/03 03:42:58;;;;;;;33.63;16.30;;;;;;;10.08;100.00;101119.44;5247146;28;20060;-73
2024/02/03 03:45:28;;;;;;;30.98;16.33;;;;;;;10.06;100.00;101131.69;5251424;28;20025;-74
2024/02/03 03:47:58;;;;;;;36.17;17.10;;;;;;;10.04;100.00;101116.94;5252159;28;20404;-73
2024/02/03 03:50:29;;;;;;;30.42;16.55;;;;;;;10.06;100.00;101115.13;5251104;28;20036;-75
2024/02/03 03:52:59;;;;;;;28.20;15.90;;;;;;;10.09;100.00;101122.88;5235764;28;20093;-73
2024/02/03 03:55:29;;;;;;;29.58;16.63;;;;;;;9.98;100.00;101127.50;5245342;28;20124;-75
2024/02/03 03:58:00;;;;;;;33.22;16.73;;;;;;;9.96;100.00;101132.75;5251418;28;20095;-74
2024/02/03 04:00:30;;;;;;;28.92;15.95;;;;;;;9.98;100.00;101132.72;5248229;28;20489;-75
2024/02/03 04:03:00;;;;;;;30.45;16.15;;;;;;;9.93;100.00;101130.22;5249690;28;20394;-75
2024/02/03 04:05:30;;;;;;;30.45;15.48;;;;;;;9.95;100.00;101138.00;5244590;28;20138;-75
2024/02/03 04:08:03;;;;;;;31.23;15.57;;;;;;;9.91;100.00;101141.56;5247085;28;20069;-74
2024/02/03 04:10:33;;;;;;;28.33;15.38;;;;;;;9.91;100.00;101134.63;5249028;28;20097;-75
2024/02/03 04:13:04;;;;;;;26.25;13.95;;;;;;;9.88;100.00;101128.59;5251481;28;20032;-75
2024/02/03 04:15:34;;;;;;;24.65;14.18;;;;;;;9.88;100.00;101133.81;5251045;28;20032;-75
2024/02/03 04:18:05;;;;;;;25.58;14.02;;;;;;;9.93;100.00;101134.56;5250350;28;20024;-76
2024/02/03 04:20:35;;;;;;;26.52;12.68;;;;;;;9.95;100.00;101127.53;5243167;28;20126;-74
2024/02/03 04:23:06;;;;;;;25.60;13.32;;;;;;;9.87;100.00;101130.38;5244936;28;20024;-75
2024/02/03 04:25:36;;;;;;;22.52;12.20;;;;;;;9.90;100.00;101126.81;5247288;28;20024;-76
2024/02/03 04:28:06;;;;;;;23.52;11.98;;;;;;;9.98;100.00;101117.91;5251263;28;20119;-75
2024/02/03 04:30:37;;;;;;;23.77;12.25;;;;;;;9.89;100.00;101109.44;5250796;28;20499;-75
2024/02/03 04:33:07;;;;;;;22.13;12.85;;;;;;;9.91;100.00;101120.69;5250837;28;20024;-74
2024/02/03 04:35:38;;;;;;;20.55;11.45;;;;;;;10.03;100.00;101112.59;5239165;28;20099;-75
2024/02/03 04:38:08;;;;;;;23.13;11.90;;;;;;;9.97;100.00;101110.13;5236871;28;20077;-74
2024/02/03 04:40:38;;;;;;;25.23;11.88;;;;;;;9.89;100.00;101105.09;5243792;28;20155;-75
2024/02/03 04:43:08;;;;;;;20.52;11.63;;;;;;;9.93;100.00;101103.22;5248328;28;20091;-74
2024/02/03 04:45:39;;;;;;;21.95;11.35;;;;;;;9.93;100.00;101103.22;5245479;28;20032;-75
2024/02/03 04:48:09;;;;;;;20.55;11.65;;;;;;;10.00;100.00;101107.44;5241631;28;20031;-75
2024/02/03 04:50:39;;;;;;;21.17;11.13;;;;;;;9.99;100.00;101097.88;5244841;28;20114;-74
2024/02/03 04:53:11;;;;;;;21.63;10.85;;;;;;;10.03;100.00;101099.53;5247885;28;20081;-75
2024/02/03 04:55:41;;;;;;;19.85;10.57;;;;;;;10.06;100.00;101096.84;5246695;28;20474;-76
2024/02/03 04:58:12;;;;;;;20.33;10.70;;;;;;;10.02;100.00;101100.44;5245556;28;20043;-75
2024/02/03 05:00:42;;;;;;;19.52;10.65;;;;;;;9.99;100.00;101103.09;5244322;28;20468;-74
2024/02/03 05:03:12;;;;;;;18.08;10.05;;;;;;;10.04;100.00;101111.72;5241989;28;20508;-75
2024/02/03 05:05:43;;;;;;;20.02;9.93;;;;;;;10.12;100.00;101108.00;5243458;28;20032;-75
2024/02/03 05:08:13;;;;;;;19.77;10.55;;;;;;;10.03;100.00;101121.28;5245898;28;20056;-75
2024/02/03 05:10:43;;;;;;;18.20;9.95;;;;;;;10.06;100.00;101096.84;5246245;28;20067;-75
2024/02/03 05:13:13;;;;;;;17.00;9.98;;;;;;;10.06;100.00;101104.69;5250483;28;20020;-75
2024/02/03 05:15:44;;;;;;;17.23;9.13;;;;;;;10.08;100.00;101097.66;5249591;28;20516;-75
2024/02/03 05:18:14;;;;;;;15.88;8.82;;;;;;;10.08;100.00;101097.66;5247471;28;20023;-75
2024/02/03 05:20:44;;;;;;;15.27;8.23;;;;;;;10.05;100.00;101095.13;5242497;28;20131;-75
2024/02/03 05:23:15;;;;;;;20.40;8.90;;;;;;;10.10;100.00;101090.66;5247800;28;20031;-75
2024/02/03 05:25:46;;;;;;;14.18;7.78;;;;;;;10.08;100.00;101087.22;5247601;28;20040;-76
2024/02/03 05:28:16;;;;;;;13.23;8.05;;;;;;;10.08;100.00;101089.84;5247994;28;20020;-76
2024/02/03 05:30:46;;;;;;;12.77;7.25;;;;;;;10.04;100.00;101096.03;5242949;28;20032;-76
2024/02/03 05:33:17;;;;;;;14.98;7.57;;;;;;;10.04;100.00;101089.06;5243268;28;20020;-74
2024/02/03 05:35:47;;;;;;;14.93;8.00;;;;;;;10.06;100.00;101079.44;5249373;28;20020;-75
2024/02/03 05:38:17;;;;;;;13.07;7.55;;;;;;;10.01;100.00;101083.03;5231762;28;20024;-75
2024/02/03 05:40:48;;;;;;;14.38;7.30;;;;;;;10.04;100.00;101077.75;5250312;28;20221;-75
2024/02/03 05:43:18;;;;;;;13.85;7.13;;;;;;;10.01;100.00;101073.47;5254333;28;20024;-76
2024/02/03 05:45:48;;;;;;;10.55;6.25;;;;;;;9.98;100.00;101065.69;5250623;28;20044;-75
2024/02/03 05:48:18;;;;;;;13.05;6.65;;;;;;;10.02;100.00;101069.09;5252501;28;20121;-75
2024/02/03 05:50:49;;;;;;;12.48;6.45;;;;;;;10.01;100.00;101069.97;5254387;28;20036;-75
2024/02/03 05:53:19;;;;;;;12.20;6.45;;;;;;;10.02;100.00;101074.34;5253881;28;20042;-75
2024/02/03 05:55:49;;;;;;;12.43;6.60;;;;;;;10.01;100.00;101080.41;5250108;28;20047;-75
2024/02/03 05:58:20;;;;;;;11.32;6.25;;;;;;;9.97;100.00;101078.78;5251254;28;20370;-75
2024/02/03 06:00:50;;;;;;;12.02;6.53;;;;;;;9.98;100.00;101083.13;5256764;28;20031;-76
2024/02/03 06:03:20;;;;;;;13.23;6.95;;;;;;;9.92;100.00;101073.66;5255959;28;20052;-76
2024/02/03 06:05:51;;;;;;;12.07;6.45;;;;;;;10.00;100.00;101083.94;5246570;28;20044;-76
2024/02/03 06:08:21;;;;;;;10.65;6.22;;;;;;;9.92;100.00;101085.84;5251862;28;20024;-75
2024/02/03 06:10:51;;;;;;;10.85;5.90;;;;;;;9.95;100.00;101065.75;5253757;28;20103;-75
2024/02/03 06:13:22;;;;;;;11.05;6.10;;;;;;;9.95;100.00;101067.50;5255742;28;20031;-75
2024/02/03 06:15:52;;;;;;;11.52;6.43;;;;;;;9.93;100.00;101066.69;5249969;28;20024;-75
2024/02/03 06:18:23;;;;;;;10.52;6.35;;;;;;;9.94;100.00;101071.88;5250020;28;20024;-76
2024/02/03 06:20:53;;;;;;;10.77;5.38;;;;;;;9.91;100.00;101073.69;5248666;28;20036;-76
2024/02/03 06:23:23;;;;;;;12.45;6.10;;;;;;;9.89;100.00;101070.28;5251737;28;20050;-76
2024/02/03 06:25:53;;;;;;;11.32;5.50;;;;;;;9.91;100.00;101068.47;5249059;28;20032;-75
2024/02/03 06:28:25;;;;;;;11.00;5.63;;;;;;;9.92;100.00;101078.03;5246164;28;20035;-75
2024/02/03 06:30:55;;;;;;;10.45;5.80;;;;;;;9.94;100.00;101073.63;5247439;28;20037;-76
2024/02/03 06:33:26;;;;;;;12.15;6.07;;;;;;;9.93;100.00;101069.28;5246422;28;20168;-75
2024/02/03 06:35:59;;;;;;;9.88;5.70;;;;;;;9.97;100.00;101073.56;5246709;28;20393;-75
2024/02/03 06:38:29;;;;;;;11.07;5.70;;;;;;;9.96;100.00;101071.84;5241262;28;20038;-75
2024/02/03 06:40:59;;;;;;;11.07;5.57;;;;;;;9.92;100.00;101081.50;5250557;28;20036;-75
2024/02/03 06:43:30;;;;;;;10.18;5.40;;;;;;;9.90;100.00;101070.25;5246234;28;20035;-75
2024/02/03 06:46:00;;;;;;;9.48;4.78;;;;;;;9.97;100.00;101076.19;5250217;28;20024;-75
2024/02/03 06:48:30;;;;;;;8.80;5.03;;;;;;;10.00;100.00;101068.25;5248966;28;20020;-75
2024/02/03 06:51:01;;;;;;;8.90;4.90;;;;;;;10.02;100.00;101069.94;5251533;28;20059;-76
2024/02/03 06:53:31;;;;;;;9.18;4.80;;;;;;;9.96;100.00;101069.25;5246895;28;20545;-76
2024/02/03 06:56:02;;;;;;;9.50;5.00;;;;;;;9.99;100.00;101075.22;5250695;28;20040;-76
2024/02/03 06:58:33;;;;;;;8.00;4.60;;;;;;;10.03;100.00;101076.03;5247184;28;20594;-75
2024/02/03 07:01:03;;;;;;;8.35;4.97;;;;;;;10.05;100.00;101082.97;5246174;28;20028;-75
2024/02/03 07:03:34;;;;;;;7.95;4.38;;;;;;;10.09;100.00;101084.59;5247490;28;20514;-75
2024/02/03 07:06:04;;;;;;;7.57;4.38;;;;;;;10.13;100.00;101086.22;5247456;28;20031;-74
2024/02/03 07:08:34;;;;;;;8.38;4.18;;;;;;;10.15;100.00;101094.03;5247163;28;22191;-76
2024/02/03 07:11:06;;;;;;;8.30;4.28;;;;;;;10.06;100.00;101089.88;5245420;28;20457;-74
2024/02/03 07:13:36;;;;;;;6.97;4.30;;;;;;;10.08;100.00;101095.94;5246607;28;20115;-76
2024/02/03 07:16:06;;;;;;;7.00;3.75;;;;;;;10.06;100.00;101102.06;5245345;28;20110;-75
2024/02/03 07:18:37;;;;;;;7.35;4.38;;;;;;;10.04;100.00;101099.53;5249205;28;20105;-75
2024/02/03 07:21:07;;;;;;;7.72;4.13;;;;;;;10.00;100.00;101090.00;5248168;28;20274;-75
2024/02/03 07:23:37;;;;;;;6.78;3.67;;;;;;;10.06;100.00;101089.03;5248287;28;20374;-76
2024/02/03 07:26:08;;;;;;;8.38;3.75;;;;;;;10.01;100.00;101083.91;5247756;28;20086;-75
2024/02/03 07:28:38;;;;;;;6.75;4.20;;;;;;;10.07;100.00;101088.13;5248146;28;20027;-76
2024/02/03 07:31:08;;;;;;;6.57;3.75;;;;;;;10.08;100.00;101084.59;5252444;28;20035;-75
2024/02/03 07:33:38;;;;;;;7.20;4.20;;;;;;;10.05;100.00;101089.91;5246911;28;20438;-74
2024/02/03 07:36:09;;;;;;;6.50;3.60;;;;;;;10.12;100.00;101083.63;5248621;28;20051;-75
2024/02/03 07:38:39;;;;;;;5.93;3.08;;;;;;;10.10;100.00;101093.25;5246399;28;20024;-75
2024/02/03 07:41:09;;;;;;;5.78;3.20;;;;;;;10.16;100.00;101093.13;5246025;28;20028;-75
2024/02/03 07:43:40;;;;;;;6.38;3.25;;;;;;;10.15;100.00;101091.41;5250077;28;20325;-75
2024/02/03 07:46:11;;;;;;;5.30;3.05;;;;;;;10.18;100.00;101086.94;5249377;28;20167;-74
2024/02/03 07:48:41;;;;;;;5.70;3.42;;;;;;;10.08;100.00;101095.06;5248325;28;20024;-75
2024/02/03 07:51:12;;;;;;;5.30;3.30;;;;;;;10.24;100.00;101099.00;5251781;28;20023;-74
2024/02/03 07:53:43;;;;;;;6.90;3.72;;;;;;;10.18;100.00;101105.22;5252401;28;20028;-75
2024/02/03 07:56:13;;;;;;;7.07;3.40;;;;;;;10.22;100.00;101106.88;5250054;28;20020;-75
2024/02/03 07:58:45;;;;;;;7.22;3.65;;;;;;;10.32;100.00;101102.28;5250601;28;20024;-75
2024/02/03 08:01:19;;;;;;;6.38;3.10;;;;;;;10.26;100.00;101097.19;5248948;28;20020;-75
2024/02/03 08:03:51;;;;;;;5.28;3.17;;;;;;;10.31;100.00;101098.81;5248924;28;20552;-75
2024/02/03 08:06:21;;;;;;;5.65;3.13;;;;;;;10.24;100.00;101093.78;5246781;28;20043;-75
2024/02/03 08:08:52;;;;;;;5.20;3.10;;;;;;;10.25;100.00;101101.59;5250149;28;20441;-75
2024/02/03 08:11:22;;;;;;;7.85;3.58;;;;;;;10.23;100.00;101115.56;5249869;28;20086;-75
2024/02/03 08:13:52;;;;;;;6.78;3.13;;;;;;;10.34;100.00;101124.00;5248638;28;20062;-75
2024/02/03 08:16:23;;;;;;;5.05;3.35;;;;;;;10.35;100.00;101112.66;5249679;28;20397;-75
2024/02/03 08:18:53;;;;;;;7.00;3.10;;;;;;;10.34;100.00;101121.38;5249603;28;20067;-75
2024/02/03 08:21:23;;;;;;;5.03;2.65;;;;;;;10.37;100.00;101124.75;5246645;28;20425;-75
2024/02/03 08:23:53;;;;;;;5.22;2.88;;;;;;;10.51;100.00;101127.03;5243482;28;20042;-74
2024/02/03 08:26:24;;;;;;;4.40;2.83;;;;;;;10.61;100.00;101124.13;5247151;28;20127;-75
2024/02/03 08:28:54;;;;;;;4.25;2.53;;;;;;;10.60;100.00;101122.41;5250268;28;20118;-75
2024/02/03 08:31:24;;;;;;;4.95;3.08;;;;;;;10.46;100.00;101118.44;5248010;28;20031;-75
2024/02/03 08:33:55;;;;;;;4.78;2.72;;;;;;;10.54;100.00;101121.72;5247361;28;20432;-75
2024/02/03 08:36:25;;;;;;;5.05;3.22;;;;;;;10.52;100.00;101116.50;5251048;28;20456;-75
2024/02/03 08:38:56;;;;;;;4.50;2.60;;;;;;;10.54;100.00;101116.50;5248954;28;20024;-75
2024/02/03 08:41:26;;;;;;;6.35;2.92;;;;;;;10.54;100.00;101124.31;5250662;28;20059;-74
2024/02/03 08:43:56;;;;;;;5.10;2.92;;;;;;;10.56;100.00;101112.06;5249566;28;20028;-75
2024/02/03 08:46:26;;;;;;;4.60;2.95;;;;;;;10.54;100.00;101116.50;5245351;28;20089;-75
2024/02/03 08:48:57;;;;;;;5.47;3.15;;;;;;;10.57;100.00;101119.00;5248843;28;20556;-75
2024/02/03 08:51:27;;;;;;;4.88;2.80;;;;;;;10.57;100.00;101113.78;5248980;28;20032;-75
2024/02/03 08:53:57;;;;;;;4.15;2.80;;;;;;;10.62;100.00;101123.22;5246835;28;20032;-75
2024/02/03 08:56:28;;;;;;;4.22;2.83;;;;;;;10.59;100.00;101119.81;5249984;28;20047;-75
2024/02/03 08:58:58;;;;;;;5.00;3.03;;;;;;;10.67;100.00;101110.88;5249305;28;20431;-75
2024/02/03 09:01:28;;;;;;;4.25;2.75;;;;;;;10.68;100.00;101115.19;5245999;28;20023;-75
2024/02/03 09:03:58;;;;;;;4.78;3.05;;;;;;;10.68;100.00;101116.97;5249352;28;20078;-75
2024/02/03 09:06:29;;;;;;;5.18;3.20;;;;;;;10.65;100.00;101117.06;5239779;28;20024;-75
2024/02/03 09:08:59;;;;;;;4.07;2.58;;;;;;;10.66;100.00;101116.16;5246994;28;20036;-75
2024/02/03 09:11:30;;;;;;;4.10;2.67;;;;;;;10.76;100.00;101115.00;5246279;28;20107;-75
2024/02/03 09:14:03;;;;;;;3.90;2.45;;;;;;;10.79;100.00;101107.94;5249793;28;20027;-75
2024/02/03 09:16:33;;;;;;;4.38;2.55;;;;;;;10.79;100.00;101121.00;5239778;28;20256;-75
2024/02/03 09:19:03;;;;;;;5.68;2.60;;;;;;;10.81;100.00;101118.34;5249202;28;20034;-75
2024/02/03 09:21:34;;;;;;;4.78;2.63;;;;;;;10.78;100.00;101118.41;5245485;28;20274;-75
2024/02/03 09:24:04;;;;;;;4.35;2.35;;;;;;;10.85;100.00;101119.97;5249428;28;20348;-74
2024/02/03 09:26:41;;;;;;;3.90;2.53;;;;;;;10.89;100.00;101121.59;5244640;28;20429;-75
2024/02/03 09:29:13;;;;;;;3.65;2.33;;;;;;;10.90;100.00;101129.41;5243502;28;20140;-74
2024/02/03 09:31:43;;;;;;;3.70;2.38;;;;;;;10.84;100.00;101137.41;5244328;28;20287;-75
2024/02/03 09:34:13;;;;;;;3.90;2.30;;;;;;;10.91;100.00;101132.88;5241786;28;20039;-75
2024/02/03 09:36:44;;;;;;;3.85;2.47;;;;;;;10.98;100.00;101140.50;5239927;28;20020;-75
2024/02/03 09:39:14;;;;;;;2.88;1.80;;;;;;;10.98;100.00;101137.91;5245815;28;20031;-74
2024/02/03 09:44:17;;;;;;;3.47;1.90;;;;;;;10.97;100.00;101146.66;5181774;28;20050;-77
2024/02/03 09:46:50;;;;;;;2.58;1.77;;;;;;;11.00;100.00;101148.31;5187118;28;20394;-77
2024/02/03 09:49:20;;;;;;;3.53;1.80;;;;;;;10.92;100.00;101145.94;5187465;28;20087;-76
2024/02/03 09:51:51;;;;;;;4.93;2.17;;;;;;;10.90;100.00;101144.25;5188410;28;20030;-76
2024/02/03 09:54:21;;;;;;;4.45;1.55;;;;;;;11.03;100.00;101152.56;5183501;28;20442;-77
2024/02/03 09:56:52;;;;;;;4.45;1.90;;;;;;;11.07;100.00;101159.41;5184873;28;20018;-77
2024/02/03 09:59:22;;;;;;;4.50;2.10;;;;;;;11.04;100.00;101163.88;5186999;28;20444;-77
2024/02/03 10:01:52;;;;;;;10.85;3.75;;;;;;;11.01;100.00;101158.72;5167228;28;20021;-77
2024/02/03 10:04:23;;;;;;;4.78;2.50;;;;;;;10.99;100.00;101164.94;5183351;28;20068;-77
2024/02/03 10:07:00;;;;;;;4.38;1.90;;;;;;;10.97;100.00;101156.22;5165986;28;20026;-77
2024/02/03 10:09:30;;;;;;;3.03;1.90;;;;;;;10.98;100.00;101163.19;5185209;28;20048;-77
2024/02/03 10:12:01;;;;;;;3.35;1.88;;;;;;;10.87;100.00;101160.03;5182916;28;20386;-77
2024/02/03 10:14:31;;;;;;;3.30;1.70;;;;;;;10.92;100.00;101159.00;5179385;28;20454;-77
2024/02/03 10:17:01;;;;;;;2.55;1.70;;;;;;;10.96;100.00;101157.13;5180393;28;20029;-77
2024/02/03 10:19:32;;;;;;;2.75;1.65;;;;;;;11.02;100.00;101149.13;5182355;28;20508;-77
2024/02/03 10:22:02;;;;;;;2.92;1.80;;;;;;;11.04;100.00;101151.66;5187513;28;20080;-77
2024/02/03 10:24:32;;;;;;;3.20;1.85;;;;;;;10.98;100.00;101157.94;5183148;28;20040;-77
2024/02/03 10:27:04;;;;;;;3.55;1.80;;;;;;;10.99;100.00;101154.47;5185469;28;20030;-77
2024/02/03 10:29:34;;;;;;;2.72;1.80;;;;;;;10.93;100.00;101150.25;5177974;28;20483;-77
2024/02/03 10:32:05;;;;;;;3.83;1.70;;;;;;;11.04;100.00;101153.41;5193408;28;20031;-77
2024/02/03 10:34:35;;;;;;;3.03;1.98;;;;;;;11.08;100.00;101163.75;5192349;28;20525;-78
2024/02/03 10:37:06;;;;;;;4.95;2.08;;;;;;;11.02;100.00;101155.22;5188981;28;20630;-77
2024/02/03 10:39:38;;;;;;;3.47;2.58;;;;;;;11.02;100.00;101159.59;5187343;28;20034;-78
2024/02/03 10:42:13;;;;;;;4.30;2.15;;;;;;;11.00;100.00;101145.72;5177488;28;20052;-77
2024/02/03 10:44:47;;;;;;;3.65;2.33;;;;;;;10.95;100.00;101160.66;5186818;28;20026;-77
2024/02/03 10:47:23;;;;;;;3.60;2.38;;;;;;;10.95;100.00;101158.03;5182472;28;20419;-78
2024/02/03 10:49:55;;;;;;;4.30;2.47;;;;;;;10.94;100.00;101151.09;5187826;28;20037;-78
2024/02/03 10:52:28;;;;;;;5.55;2.70;;;;;;;10.99;100.00;101159.69;5189498;28;20060;-77
2024/02/03 10:54:59;;;;;;;4.55;3.03;;;;;;;10.93;100.00;101154.59;5187111;28;20400;-77
2024/02/03 10:57:30;;;;;;;4.10;2.53;;;;;;;10.89;100.00;101142.53;5170225;28;20310;-78
2024/02/03 11:00:06;;;;;;;4.82;2.60;;;;;;;10.91;100.00;101152.06;5188631;28;20036;-78
2024/02/03 11:02:36;;;;;;;4.05;2.67;;;;;;;11.00;100.00;101150.94;5186949;28;20450;-77
2024/02/03 11:05:09;;;;;;;5.45;2.80;;;;;;;10.99;100.00;101136.16;5187310;28;20029;-77
2024/02/03 11:07:45;;;;;;;7.20;2.60;;;;;;;11.07;100.00;101148.13;5180635;28;20029;-77
2024/02/03 11:10:16;;;;;;;11.75;4.68;;;;;;;11.00;100.00;101135.25;5179094;28;20026;-78
2024/02/03 11:12:46;;;;;;;6.38;3.65;;;;;;;10.95;100.00;101132.75;5183117;28;20026;-77
2024/02/03 11:15:16;;;;;;;7.28;3.65;;;;;;;11.04;100.00;101142.94;5169946;28;20116;-77
2024/02/03 11:17:49;;;;;;;5.95;3.55;;;;;;;11.12;100.00;101139.22;5182900;28;20379;-78
2024/02/03 11:20:20;;;;;;;13.18;5.20;;;;;;;11.16;100.00;101135.63;5182112;28;20534;-76
2024/02/03 11:22:54;;;;;;;10.40;4.30;;;;;;;11.05;100.00;101132.44;5189398;28;20056;-78
2024/02/03 11:25:25;;;;;;;4.45;2.45;;;;;;;11.08;100.00;101121.06;5184220;28;20048;-77
2024/02/03 11:27:55;;;;;;;14.93;6.05;;;;;;;11.17;100.00;101116.41;5168760;28;20018;-77